createdAt,value
2018-05-23T00:00:20.216Z,91.03
2018-05-23T00:01:20.386Z,91.70
2018-05-23T00:02:20.552Z,91.17
2018-05-23T00:03:20.722Z,91.03
2018-05-23T00:04:20.892Z,91.41
2018-05-23T00:05:21.064Z,91.31
2018-05-23T00:06:21.239Z,91.22
2018-05-23T00:07:21.408Z,91.13
2018-05-23T00:08:21.575Z,91.13
2018-05-23T00:09:21.745Z,91.22
2018-05-23T00:10:21.918Z,90.73
2018-05-23T00:11:22.089Z,90.45
2018-05-23T00:12:22.259Z,90.88
2018-05-23T00:13:22.439Z,90.50
2018-05-23T00:14:22.615Z,90.40
2018-05-23T00:15:22.785Z,90.20
2018-05-23T00:16:22.955Z,90.35
2018-05-23T00:17:23.116Z,90.64
2018-05-23T00:18:23.285Z,90.78
2018-05-23T00:19:23.457Z,90.59
2018-05-23T00:20:23.631Z,90.11
2018-05-23T00:21:23.798Z,90.30
2018-05-23T00:22:23.975Z,90.30
2018-05-23T00:23:24.136Z,90.40
2018-05-23T00:24:24.311Z,89.82
2018-05-23T00:25:24.481Z,89.92
2018-05-23T00:26:24.832Z,90.11
2018-05-23T00:27:24.879Z,89.72
2018-05-23T00:28:25.048Z,90.50
2018-05-23T00:29:25.220Z,90.20
2018-05-23T00:30:25.389Z,90.59
2018-05-23T00:31:25.557Z,90.78
2018-05-23T00:32:28.344Z,90.78
2018-05-23T00:33:25.888Z,90.59
2018-05-23T00:34:26.117Z,90.59
2018-05-23T00:35:26.292Z,90.78
2018-05-23T00:36:26.462Z,90.69
2018-05-23T00:37:26.633Z,90.50
2018-05-23T00:38:27.347Z,90.88
2018-05-23T00:39:27.016Z,90.55
2018-05-23T00:40:27.200Z,91.36
2018-05-23T00:41:27.365Z,91.13
2018-05-23T00:42:27.538Z,91.60
2018-05-23T00:43:28.275Z,90.93
2018-05-23T00:44:27.865Z,91.70
2018-05-23T00:45:28.035Z,91.31
2018-05-23T00:46:28.205Z,91.36
2018-05-23T00:47:28.373Z,90.73
2018-05-23T00:48:28.543Z,91.13
2018-05-23T00:49:28.721Z,90.83
2018-05-23T00:50:28.888Z,90.45
2018-05-23T00:51:29.057Z,90.73
2018-05-23T00:52:29.222Z,90.55
2018-05-23T00:53:29.397Z,90.83
2018-05-23T00:54:29.567Z,90.64
2018-05-23T00:55:29.738Z,90.64
2018-05-23T00:56:29.905Z,90.55
2018-05-23T00:57:30.080Z,90.45
2018-05-23T00:58:30.257Z,90.35
2018-05-23T00:59:30.425Z,89.82
2018-05-23T01:00:30.597Z,90.11
2018-05-23T01:01:30.779Z,90.01
2018-05-23T01:02:30.935Z,89.72
2018-05-23T01:03:31.099Z,89.15
2018-05-23T01:04:31.275Z,89.24
2018-05-23T01:05:31.449Z,88.57
2018-05-23T01:06:31.618Z,88.85
2018-05-23T01:07:31.787Z,88.76
2018-05-23T01:08:31.954Z,88.95
2018-05-23T01:09:32.296Z,89.05
2018-05-23T01:10:32.339Z,89.43
2018-05-23T01:11:32.508Z,89.49
2018-05-23T01:12:32.684Z,89.63
2018-05-23T01:13:32.854Z,89.34
2018-05-23T01:14:33.019Z,89.29
2018-05-23T01:15:33.193Z,89.78
2018-05-23T01:16:33.366Z,90.16
2018-05-23T01:17:33.537Z,90.16
2018-05-23T01:18:33.708Z,90.93
2018-05-23T01:19:33.877Z,90.45
2018-05-23T01:20:34.049Z,90.16
2018-05-23T01:21:34.862Z,91.31
2018-05-23T01:22:34.403Z,90.55
2018-05-23T01:23:35.362Z,91.51
2018-05-23T01:24:34.777Z,90.06
2018-05-23T01:25:34.949Z,90.73
2018-05-23T01:26:35.119Z,90.35
2018-05-23T01:27:35.298Z,90.83
2018-05-23T01:28:35.460Z,90.64
2018-05-23T01:29:35.638Z,90.55
2018-05-23T01:30:35.816Z,90.83
2018-05-23T01:31:35.986Z,90.45
2018-05-23T01:32:36.157Z,90.64
2018-05-23T01:33:36.329Z,90.55
2018-05-23T01:34:36.499Z,90.55
2018-05-23T01:35:36.665Z,90.06
2018-05-23T01:36:36.837Z,89.68
2018-05-23T01:37:37.861Z,89.49
2018-05-23T01:38:37.162Z,89.78
2018-05-23T01:39:37.314Z,89.78
2018-05-23T01:40:37.490Z,89.29
2018-05-23T01:41:38.359Z,89.20
2018-05-23T01:42:37.781Z,88.81
2018-05-23T01:43:37.949Z,89.20
2018-05-23T01:44:38.114Z,88.53
2018-05-23T01:45:38.865Z,89.10
2018-05-23T01:46:39.359Z,88.33
2018-05-23T01:47:38.528Z,87.76
2018-05-23T01:48:38.694Z,87.76
2018-05-23T01:49:38.865Z,87.76
2018-05-23T01:50:39.030Z,87.66
2018-05-23T01:51:39.205Z,87.46
2018-05-23T01:52:39.378Z,87.27
2018-05-23T01:53:39.551Z,87.56
2018-05-23T01:54:39.724Z,86.89
2018-05-23T01:55:40.862Z,86.41
2018-05-23T01:56:40.026Z,86.69
2018-05-23T01:57:40.197Z,87.37
2018-05-23T01:58:40.372Z,88.24
2018-05-23T01:59:40.537Z,87.85
2018-05-23T02:00:40.708Z,87.66
2018-05-23T02:01:40.878Z,87.27
2018-05-23T02:02:41.047Z,87.08
2018-05-23T02:03:41.217Z,86.41
2018-05-23T02:04:41.395Z,85.64
2018-05-23T02:05:41.568Z,85.97
2018-05-23T02:06:41.735Z,86.02
2018-05-23T02:07:41.903Z,86.02
2018-05-23T02:08:42.066Z,86.02
2018-05-23T02:09:42.240Z,85.25
2018-05-23T02:10:42.409Z,85.35
2018-05-23T02:11:42.580Z,85.44
2018-05-23T02:12:42.754Z,85.25
2018-05-23T02:13:42.928Z,85.83
2018-05-23T02:14:43.099Z,85.44
2018-05-23T02:15:43.272Z,85.25
2018-05-23T02:16:43.464Z,85.06
2018-05-23T02:17:44.368Z,84.91
2018-05-23T02:18:43.795Z,84.87
2018-05-23T02:19:43.960Z,84.19
2018-05-23T02:20:44.129Z,82.56
2018-05-23T02:21:44.306Z,80.92
2018-05-23T02:22:44.472Z,81.98
2018-05-23T02:23:44.650Z,81.88
2018-05-23T02:24:44.817Z,82.37
2018-05-23T02:25:44.986Z,82.79
2018-05-23T02:26:45.154Z,84.33
2018-05-23T02:27:45.316Z,84.81
2018-05-23T02:28:45.508Z,84.91
2018-05-23T02:29:45.681Z,84.10
2018-05-23T02:30:45.848Z,83.04
2018-05-23T02:31:46.018Z,83.52
2018-05-23T02:32:46.441Z,84.23
2018-05-23T02:33:47.302Z,85.39
2018-05-23T02:34:46.880Z,84.81
2018-05-23T02:35:47.028Z,86.07
2018-05-23T02:36:47.767Z,86.41
2018-05-23T02:37:47.454Z,86.07
2018-05-23T02:38:47.477Z,85.30
2018-05-23T02:39:47.647Z,84.33
2018-05-23T02:40:47.783Z,84.81
2018-05-23T02:41:47.997Z,85.35
2018-05-23T02:42:47.739Z,85.64
2018-05-23T02:43:47.914Z,86.12
2018-05-23T02:44:48.082Z,86.12
2018-05-23T02:45:48.253Z,86.79
2018-05-23T02:46:48.420Z,86.89
2018-05-23T02:47:48.590Z,86.07
2018-05-23T02:48:48.755Z,86.02
2018-05-23T02:49:48.921Z,86.51
2018-05-23T02:50:49.875Z,86.07
2018-05-23T02:51:49.311Z,85.39
2018-05-23T02:52:49.478Z,84.53
2018-05-23T02:53:49.656Z,84.14
2018-05-23T02:54:50.381Z,84.05
2018-05-23T02:55:50.038Z,83.75
2018-05-23T02:56:50.200Z,83.85
2018-05-23T02:57:50.393Z,83.56
2018-05-23T02:58:50.539Z,83.47
2018-05-23T02:59:50.712Z,83.75
2018-05-23T03:00:51.387Z,83.47
2018-05-23T03:01:51.049Z,83.42
2018-05-23T03:02:51.321Z,83.75
2018-05-23T03:03:51.399Z,82.08
2018-05-23T03:04:51.564Z,81.12
2018-05-23T03:05:51.733Z,80.83
2018-05-23T03:06:51.911Z,80.87
2018-05-23T03:07:54.878Z,80.25
2018-05-23T03:08:52.299Z,79.77
2018-05-23T03:09:52.473Z,79.71
2018-05-23T03:10:52.638Z,79.33
2018-05-23T03:11:52.809Z,79.90
2018-05-23T03:12:52.987Z,80.96
2018-05-23T03:13:53.149Z,82.31
2018-05-23T03:14:53.319Z,83.37
2018-05-23T03:15:53.489Z,84.53
2018-05-23T03:16:53.661Z,84.81
2018-05-23T03:17:53.829Z,85.30
2018-05-23T03:18:54.001Z,85.20
2018-05-23T03:19:54.887Z,84.91
2018-05-23T03:20:54.308Z,84.87
2018-05-23T03:21:54.479Z,85.39
2018-05-23T03:22:55.379Z,85.83
2018-05-23T03:23:54.813Z,85.78
2018-05-23T03:24:54.981Z,85.74
2018-05-23T03:25:55.352Z,85.68
2018-05-23T03:26:55.269Z,85.78
2018-05-23T03:27:55.449Z,86.02
2018-05-23T03:28:55.785Z,85.44
2018-05-23T03:29:56.387Z,85.44
2018-05-23T03:30:56.055Z,85.44
2018-05-23T03:31:56.884Z,85.83
2018-05-23T03:32:56.426Z,85.39
2018-05-23T03:33:56.598Z,85.58
2018-05-23T03:34:58.406Z,85.58
2018-05-23T03:35:56.925Z,85.49
2018-05-23T03:36:57.099Z,85.25
2018-05-23T03:37:57.272Z,84.77
2018-05-23T03:38:57.440Z,84.91
2018-05-23T03:39:57.607Z,84.33
2018-05-23T03:40:57.781Z,84.23
2018-05-23T03:41:58.124Z,82.12
2018-05-23T03:42:58.169Z,81.83
2018-05-23T03:43:58.342Z,82.70
2018-05-23T03:44:58.519Z,81.83
2018-05-23T03:45:58.693Z,80.38
2018-05-23T03:46:58.858Z,78.94
2018-05-23T03:47:59.880Z,80.58
2018-05-23T03:48:59.891Z,82.12
2018-05-23T03:49:59.307Z,82.70
2018-05-23T03:50:59.484Z,82.21
2018-05-23T03:51:59.647Z,82.60
2018-05-23T03:52:59.817Z,82.70
2018-05-23T03:54:00.890Z,82.79
2018-05-23T03:55:00.187Z,82.98
2018-05-23T03:56:00.352Z,83.47
2018-05-23T03:57:00.528Z,83.28
2018-05-23T03:58:01.388Z,82.70
2018-05-23T03:59:00.807Z,82.60
2018-05-23T04:00:00.978Z,79.90
2018-05-23T04:01:01.148Z,77.98
2018-05-23T04:02:01.343Z,78.36
2018-05-23T04:03:01.504Z,77.21
2018-05-23T04:04:01.674Z,76.63
2018-05-23T04:05:01.844Z,76.15
2018-05-23T04:06:02.015Z,79.08
2018-05-23T04:07:02.196Z,80.62
2018-05-23T04:08:02.370Z,81.48
2018-05-23T04:09:02.528Z,81.77
2018-05-23T04:10:02.708Z,82.06
2018-05-23T04:11:02.874Z,79.56
2018-05-23T04:12:03.045Z,76.76
2018-05-23T04:13:03.218Z,77.92
2018-05-23T04:14:03.388Z,78.69
2018-05-23T04:15:03.563Z,76.86
2018-05-23T04:16:03.886Z,79.56
2018-05-23T04:17:04.892Z,80.33
2018-05-23T04:18:04.063Z,78.15
2018-05-23T04:19:04.238Z,78.59
2018-05-23T04:20:04.413Z,76.76
2018-05-23T04:21:04.747Z,73.20
2018-05-23T04:22:09.395Z,73.39
2018-05-23T04:23:04.942Z,75.74
2018-05-23T04:24:05.151Z,74.07
2018-05-23T04:25:05.287Z,73.05
2018-05-23T04:26:05.461Z,71.98
2018-05-23T04:27:05.632Z,70.64
2018-05-23T04:28:05.803Z,71.02
2018-05-23T04:29:05.980Z,70.44
2018-05-23T04:30:06.152Z,69.67
2018-05-23T04:31:07.894Z,69.38
2018-05-23T04:32:07.396Z,69.29
2018-05-23T04:33:06.680Z,68.71
2018-05-23T04:34:07.397Z,69.19
2018-05-23T04:35:06.950Z,69.48
2018-05-23T04:36:07.121Z,69.09
2018-05-23T04:37:07.289Z,68.52
2018-05-23T04:38:08.399Z,68.80
2018-05-23T04:39:08.397Z,68.23
2018-05-23T04:40:07.688Z,68.23
2018-05-23T04:41:07.867Z,68.52
2018-05-23T04:42:08.165Z,68.71
2018-05-23T04:43:08.213Z,68.04
2018-05-23T04:44:08.406Z,68.61
2018-05-23T04:45:08.582Z,68.99
2018-05-23T04:46:09.401Z,68.42
2018-05-23T04:47:08.946Z,67.74
2018-05-23T04:48:09.112Z,67.07
2018-05-23T04:49:09.296Z,66.88
2018-05-23T04:50:09.467Z,67.36
2018-05-23T04:51:10.408Z,68.52
2018-05-23T04:52:09.776Z,68.32
2018-05-23T04:53:09.952Z,68.13
2018-05-23T04:54:10.121Z,67.94
2018-05-23T04:55:10.285Z,67.07
2018-05-23T04:56:11.398Z,67.07
2018-05-23T04:57:11.396Z,66.97
2018-05-23T04:58:10.686Z,66.88
2018-05-23T04:59:10.854Z,66.97
2018-05-23T05:00:11.900Z,66.39
2018-05-23T05:01:11.199Z,66.82
2018-05-23T05:02:11.365Z,67.78
2018-05-23T05:03:11.533Z,66.91
2018-05-23T05:04:11.709Z,67.58
2018-05-23T05:05:11.892Z,69.19
2018-05-23T05:06:12.063Z,69.57
2018-05-23T05:07:12.235Z,69.38
2018-05-23T05:08:12.400Z,69.80
2018-05-23T05:09:12.574Z,69.90
2018-05-23T05:10:12.869Z,68.26
2018-05-23T05:11:13.905Z,68.16
2018-05-23T05:12:13.080Z,68.16
2018-05-23T05:13:13.252Z,66.43
2018-05-23T05:14:13.419Z,65.75
2018-05-23T05:15:13.587Z,66.24
2018-05-23T05:16:13.758Z,66.33
2018-05-23T05:17:13.931Z,66.24
2018-05-23T05:18:14.101Z,66.91
2018-05-23T05:19:14.272Z,67.20
2018-05-23T05:20:15.403Z,67.58
2018-05-23T05:21:14.579Z,67.78
2018-05-23T05:22:14.747Z,67.58
2018-05-23T05:23:14.924Z,66.91
2018-05-23T05:24:15.093Z,66.91
2018-05-23T05:25:15.906Z,66.82
2018-05-23T05:26:15.456Z,66.82
2018-05-23T05:27:15.629Z,66.72
2018-05-23T05:28:15.807Z,67.49
2018-05-23T05:29:15.977Z,66.82
2018-05-23T05:30:16.171Z,67.49
2018-05-23T05:31:16.341Z,67.49
2018-05-23T05:32:16.515Z,67.10
2018-05-23T05:33:16.689Z,67.49
2018-05-23T05:34:16.850Z,67.97
2018-05-23T05:35:17.019Z,67.10
2018-05-23T05:36:17.914Z,67.49
2018-05-23T05:37:17.329Z,67.00
2018-05-23T05:38:17.500Z,67.00
2018-05-23T05:39:17.671Z,66.72
2018-05-23T05:40:17.839Z,67.00
2018-05-23T05:41:18.008Z,67.10
2018-05-23T05:42:18.171Z,67.00
2018-05-23T05:43:18.344Z,66.72
2018-05-23T05:44:18.514Z,66.91
2018-05-23T05:45:18.683Z,67.49
2018-05-23T05:46:18.854Z,66.72
2018-05-23T05:47:19.025Z,66.72
2018-05-23T05:48:19.199Z,66.72
2018-05-23T05:49:19.487Z,66.52
2018-05-23T05:50:19.532Z,66.62
2018-05-23T05:51:19.701Z,66.43
2018-05-23T05:52:19.876Z,66.91
2018-05-23T05:53:20.046Z,67.00
2018-05-23T05:54:20.218Z,66.04
2018-05-23T05:55:20.393Z,66.82
2018-05-23T05:56:20.560Z,66.43
2018-05-23T05:57:20.727Z,66.91
2018-05-23T05:58:20.898Z,66.24
2018-05-23T05:59:21.068Z,66.04
2018-05-23T06:00:21.238Z,65.85
2018-05-23T06:01:21.417Z,65.37
2018-05-23T06:02:21.578Z,65.37
2018-05-23T06:03:21.752Z,65.20
2018-05-23T06:04:21.919Z,64.72
2018-05-23T06:05:22.091Z,64.21
2018-05-23T06:06:22.262Z,64.72
2018-05-23T06:07:22.431Z,64.92
2018-05-23T06:08:22.608Z,63.57
2018-05-23T06:09:22.838Z,63.85
2018-05-23T06:10:22.946Z,63.47
2018-05-23T06:11:23.119Z,64.34
2018-05-23T06:12:23.289Z,63.67
2018-05-23T06:13:23.461Z,63.76
2018-05-23T06:14:23.636Z,63.37
2018-05-23T06:15:23.810Z,63.21
2018-05-23T06:16:23.992Z,63.12
2018-05-23T06:17:24.156Z,63.02
2018-05-23T06:18:24.329Z,61.47
2018-05-23T06:19:24.501Z,62.63
2018-05-23T06:20:24.677Z,62.44
2018-05-23T06:21:24.849Z,61.96
2018-05-23T06:22:25.089Z,61.09
2018-05-23T06:23:25.197Z,61.67
2018-05-23T06:24:25.367Z,61.38
2018-05-23T06:25:25.540Z,61.38
2018-05-23T06:26:25.711Z,61.22
2018-05-23T06:27:25.895Z,62.08
2018-05-23T06:28:26.059Z,61.60
2018-05-23T06:29:26.232Z,61.51
2018-05-23T06:30:26.504Z,60.83
2018-05-23T06:31:26.569Z,60.76
2018-05-23T06:32:26.749Z,60.76
2018-05-23T06:33:26.923Z,60.76
2018-05-23T06:34:27.102Z,60.76
2018-05-23T06:35:27.269Z,60.38
2018-05-23T06:36:27.441Z,60.09
2018-05-23T06:37:27.623Z,59.73
2018-05-23T06:38:27.788Z,59.73
2018-05-23T06:39:27.961Z,59.34
2018-05-23T06:40:28.136Z,58.47
2018-05-23T06:41:28.311Z,58.37
2018-05-23T06:42:28.479Z,59.44
2018-05-23T06:43:28.672Z,59.38
2018-05-23T06:44:28.833Z,59.28
2018-05-23T06:45:29.011Z,58.98
2018-05-23T06:46:29.180Z,57.82
2018-05-23T06:47:29.346Z,57.05
2018-05-23T06:48:29.518Z,57.44
2018-05-23T06:49:29.699Z,56.67
2018-05-23T06:50:29.873Z,56.76
2018-05-23T06:51:30.049Z,56.67
2018-05-23T06:52:30.224Z,56.60
2018-05-23T06:53:30.395Z,56.02
2018-05-23T06:54:30.575Z,56.02
2018-05-23T06:55:30.742Z,55.34
2018-05-23T06:56:30.915Z,54.79
2018-05-23T06:57:31.087Z,55.27
2018-05-23T06:58:31.258Z,55.27
2018-05-23T06:59:31.427Z,55.00
2018-05-23T07:00:31.610Z,54.43
2018-05-23T07:01:31.783Z,54.62
2018-05-23T07:02:31.959Z,54.52
2018-05-23T07:03:32.136Z,54.52
2018-05-23T07:04:32.305Z,54.43
2018-05-23T07:05:32.476Z,53.23
2018-05-23T07:06:32.649Z,53.63
2018-05-23T07:07:32.818Z,54.01
2018-05-23T07:08:32.998Z,54.79
2018-05-23T07:09:33.168Z,54.30
2018-05-23T07:10:33.360Z,54.95
2018-05-23T07:11:33.522Z,54.85
2018-05-23T07:12:33.692Z,54.69
2018-05-23T07:13:33.888Z,54.75
2018-05-23T07:14:34.039Z,55.53
2018-05-23T07:15:34.216Z,55.76
2018-05-23T07:16:34.398Z,55.36
2018-05-23T07:17:34.567Z,54.88
2018-05-23T07:18:34.741Z,55.66
2018-05-23T07:19:34.917Z,55.73
2018-05-23T07:20:35.092Z,55.73
2018-05-23T07:21:35.274Z,55.43
2018-05-23T07:22:35.442Z,55.56
2018-05-23T07:23:35.610Z,56.02
2018-05-23T07:24:35.789Z,55.66
2018-05-23T07:25:35.964Z,55.36
2018-05-23T07:26:36.141Z,55.76
2018-05-23T07:27:36.307Z,55.46
2018-05-23T07:28:36.484Z,55.88
2018-05-23T07:29:36.659Z,55.49
2018-05-23T07:30:36.833Z,55.49
2018-05-23T07:31:37.023Z,54.81
2018-05-23T07:32:37.181Z,54.52
2018-05-23T07:33:37.360Z,54.43
2018-05-23T07:34:37.530Z,54.94
2018-05-23T07:35:37.700Z,54.94
2018-05-23T07:36:37.873Z,54.35
2018-05-23T07:37:38.050Z,53.87
2018-05-23T07:38:38.225Z,54.09
2018-05-23T07:39:38.400Z,54.58
2018-05-23T07:40:38.573Z,54.11
2018-05-23T07:41:38.748Z,53.44
2018-05-23T07:42:38.914Z,53.44
2018-05-23T07:43:39.095Z,52.69
2018-05-23T07:44:39.260Z,52.50
2018-05-23T07:45:39.443Z,52.01
2018-05-23T07:46:39.630Z,51.81
2018-05-23T07:47:39.810Z,51.53
2018-05-23T07:48:39.990Z,51.81
2018-05-23T07:49:40.159Z,51.72
2018-05-23T07:50:40.331Z,52.20
2018-05-23T07:51:40.505Z,52.69
2018-05-23T07:52:40.682Z,52.30
2018-05-23T07:53:40.985Z,52.66
2018-05-23T07:54:41.033Z,52.69
2018-05-23T07:55:41.201Z,52.69
2018-05-23T07:56:41.402Z,52.40
2018-05-23T07:57:41.568Z,52.28
2018-05-23T07:58:41.750Z,52.56
2018-05-23T07:59:41.916Z,53.44
2018-05-23T08:00:42.088Z,53.73
2018-05-23T08:01:42.275Z,53.53
2018-05-23T08:02:43.449Z,52.98
2018-05-23T08:03:42.618Z,52.69
2018-05-23T08:04:42.810Z,52.23
2018-05-23T08:05:43.946Z,51.55
2018-05-23T08:06:43.118Z,51.18
2018-05-23T08:07:43.310Z,50.96
2018-05-23T08:08:43.473Z,51.06
2018-05-23T08:09:44.462Z,50.77
2018-05-23T08:10:43.883Z,50.89
2018-05-23T08:11:44.061Z,50.87
2018-05-23T08:12:44.232Z,51.38
2018-05-23T08:13:44.421Z,50.70
2018-05-23T08:14:44.584Z,49.46
2018-05-23T08:15:44.756Z,49.37
2018-05-23T08:16:44.930Z,49.66
2018-05-23T08:17:45.108Z,49.66
2018-05-23T08:18:45.287Z,49.66
2018-05-23T08:19:45.464Z,49.37
2018-05-23T08:20:45.639Z,49.44
2018-05-23T08:21:45.816Z,49.85
2018-05-23T08:22:45.989Z,49.46
2018-05-23T08:23:46.162Z,49.95
2018-05-23T08:24:46.342Z,50.92
2018-05-23T08:25:46.521Z,49.85
2018-05-23T08:26:46.767Z,49.85
2018-05-23T08:27:46.874Z,49.68
2018-05-23T08:28:47.056Z,49.29
2018-05-23T08:29:47.255Z,49.39
2018-05-23T08:30:47.410Z,49.49
2018-05-23T08:31:47.588Z,49.12
2018-05-23T08:32:47.763Z,49.02
2018-05-23T08:33:47.938Z,48.83
2018-05-23T08:34:48.117Z,48.63
2018-05-23T08:35:48.300Z,48.27
2018-05-23T08:36:48.469Z,47.98
2018-05-23T08:37:48.669Z,47.49
2018-05-23T08:38:48.816Z,47.30
2018-05-23T08:39:48.995Z,46.73
2018-05-23T08:40:49.179Z,46.54
2018-05-23T08:41:49.362Z,45.88
2018-05-23T08:42:49.530Z,45.88
2018-05-23T08:43:49.723Z,45.29
2018-05-23T08:44:49.903Z,45.10
2018-05-23T08:45:50.081Z,45.32
2018-05-23T08:46:50.254Z,44.64
2018-05-23T08:47:50.438Z,44.95
2018-05-23T08:48:50.624Z,44.56
2018-05-23T08:49:50.799Z,43.78
2018-05-23T08:50:50.979Z,43.68
2018-05-23T08:51:51.158Z,43.49
2018-05-23T08:52:51.328Z,43.59
2018-05-23T08:53:51.508Z,43.71
2018-05-23T08:54:51.689Z,43.78
2018-05-23T08:55:51.870Z,43.51
2018-05-23T08:56:52.049Z,43.00
2018-05-23T08:57:52.227Z,43.12
2018-05-23T08:58:52.409Z,43.51
2018-05-23T08:59:52.579Z,45.05
2018-05-23T09:00:52.756Z,44.27
2018-05-23T09:01:52.937Z,44.56
2018-05-23T09:02:53.112Z,44.64
2018-05-23T09:03:53.297Z,43.85
2018-05-23T09:04:53.482Z,44.54
2018-05-23T09:05:53.644Z,44.62
2018-05-23T09:06:53.827Z,45.39
2018-05-23T09:07:54.000Z,45.67
2018-05-23T09:08:54.189Z,45.94
2018-05-23T09:09:54.366Z,46.51
2018-05-23T09:10:54.537Z,46.54
2018-05-23T09:11:54.725Z,47.52
2018-05-23T09:12:54.896Z,47.71
2018-05-23T09:13:55.080Z,46.44
2018-05-23T09:14:55.255Z,46.73
2018-05-23T09:15:55.436Z,47.61
2018-05-23T09:16:55.626Z,47.42
2018-05-23T09:17:55.799Z,47.32
2018-05-23T09:18:55.976Z,46.54
2018-05-23T09:19:56.881Z,46.66
2018-05-23T09:20:56.326Z,46.08
2018-05-23T09:21:56.512Z,46.10
2018-05-23T09:22:56.690Z,46.30
2018-05-23T09:23:56.874Z,45.90
2018-05-23T09:24:57.052Z,46.20
2018-05-23T09:25:57.230Z,44.93
2018-05-23T09:26:57.412Z,45.05
2018-05-23T09:27:57.588Z,45.25
2018-05-23T09:28:57.767Z,45.12
2018-05-23T09:29:57.942Z,45.90
2018-05-23T09:30:58.118Z,45.92
2018-05-23T09:31:58.324Z,45.46
2018-05-23T09:32:58.505Z,44.38
2018-05-23T09:33:58.680Z,43.73
2018-05-23T09:34:58.859Z,42.60
2018-05-23T09:35:59.049Z,42.22
2018-05-23T09:36:59.222Z,41.27
2018-05-23T09:37:59.410Z,41.07
2018-05-23T09:38:59.593Z,41.36
2018-05-23T09:39:59.946Z,41.54
2018-05-23T09:40:59.951Z,41.17
2018-05-23T09:42:00.129Z,41.27
2018-05-23T09:43:00.307Z,40.19
2018-05-23T09:44:00.484Z,40.39
2018-05-23T09:45:00.680Z,40.21
2018-05-23T09:46:00.860Z,40.60
2018-05-23T09:47:01.059Z,39.80
2018-05-23T09:48:01.276Z,41.35
2018-05-23T09:49:01.440Z,40.74
2018-05-23T09:50:01.617Z,40.84
2018-05-23T09:51:01.796Z,41.62
2018-05-23T09:52:01.978Z,42.19
2018-05-23T09:53:02.974Z,42.58
2018-05-23T09:54:02.276Z,43.26
2018-05-23T09:55:02.509Z,43.32
2018-05-23T09:56:02.638Z,43.33
2018-05-23T09:57:02.819Z,43.14
2018-05-23T09:58:03.018Z,43.04
2018-05-23T09:59:03.163Z,42.24
2018-05-23T10:00:03.336Z,43.02
2018-05-23T10:01:03.510Z,42.93
2018-05-23T10:02:03.688Z,43.59
2018-05-23T10:03:03.870Z,41.85
2018-05-23T10:04:04.096Z,41.75
2018-05-23T10:05:04.254Z,40.50
2018-05-23T10:06:04.443Z,39.94
2018-05-23T10:07:04.628Z,40.23
2018-05-23T10:08:04.810Z,39.84
2018-05-23T10:09:04.981Z,39.37
2018-05-23T10:10:05.162Z,38.79
2018-05-23T10:11:05.363Z,38.71
2018-05-23T10:12:05.531Z,37.87
2018-05-23T10:13:05.716Z,37.39
2018-05-23T10:14:05.896Z,36.33
2018-05-23T10:15:06.068Z,36.24
2018-05-23T10:16:06.256Z,36.71
2018-05-23T10:17:06.435Z,36.53
2018-05-23T10:18:06.617Z,36.22
2018-05-23T10:19:06.800Z,36.12
2018-05-23T10:20:06.988Z,36.41
2018-05-23T10:21:07.162Z,36.14
2018-05-23T10:22:07.340Z,36.33
2018-05-23T10:23:07.526Z,36.92
2018-05-23T10:24:07.710Z,37.29
2018-05-23T10:25:07.958Z,36.80
2018-05-23T10:26:08.074Z,36.24
2018-05-23T10:27:08.304Z,36.55
2018-05-23T10:28:08.421Z,35.86
2018-05-23T10:29:08.603Z,35.19
2018-05-23T10:30:08.778Z,35.10
2018-05-23T10:31:08.960Z,34.61
2018-05-23T10:32:09.146Z,34.61
2018-05-23T10:33:09.327Z,35.58
2018-05-23T10:34:09.512Z,35.76
2018-05-23T10:35:09.686Z,35.76
2018-05-23T10:36:10.404Z,34.47
2018-05-23T10:37:10.063Z,33.84
2018-05-23T10:38:10.240Z,33.61
2018-05-23T10:39:10.476Z,34.01
2018-05-23T10:40:10.600Z,33.74
2018-05-23T10:41:10.780Z,33.26
2018-05-23T10:42:10.963Z,33.65
2018-05-23T10:43:11.148Z,32.90
2018-05-23T10:44:11.991Z,31.82
2018-05-23T10:45:11.551Z,30.98
2018-05-23T10:46:11.742Z,28.78
2018-05-23T10:47:11.889Z,27.72
2018-05-23T10:48:12.093Z,27.82
2018-05-23T10:49:12.253Z,26.38
2018-05-23T10:50:12.427Z,25.68
2018-05-23T10:51:12.601Z,25.68
2018-05-23T10:52:12.790Z,24.52
2018-05-23T10:53:12.992Z,24.73
2018-05-23T10:54:13.180Z,24.52
2018-05-23T10:55:13.359Z,24.15
2018-05-23T10:56:13.574Z,24.07
2018-05-23T10:57:13.807Z,24.44
2018-05-23T10:58:13.903Z,24.51
2018-05-23T10:59:14.103Z,24.13
2018-05-23T11:00:14.369Z,24.99
2018-05-23T11:01:14.518Z,26.25
2018-05-23T11:02:14.730Z,26.61
2018-05-23T11:03:14.987Z,28.27
2018-05-23T11:04:15.097Z,28.75
2018-05-23T11:05:15.276Z,28.85
2018-05-23T11:06:15.484Z,29.24
2018-05-23T11:07:15.654Z,28.75
2018-05-23T11:08:15.851Z,28.17
2018-05-23T11:09:16.025Z,28.19
2018-05-23T11:10:16.231Z,28.28
2018-05-23T11:11:16.388Z,28.28
2018-05-23T11:12:16.562Z,28.28
2018-05-23T11:13:16.778Z,27.78
2018-05-23T11:14:16.973Z,27.33
2018-05-23T11:15:17.202Z,26.26
2018-05-23T11:16:17.334Z,25.96
2018-05-23T11:17:17.546Z,26.55
2018-05-23T11:18:17.711Z,27.13
2018-05-23T11:19:17.880Z,26.84
2018-05-23T11:20:18.079Z,27.35
2018-05-23T11:21:18.254Z,25.97
2018-05-23T11:22:18.432Z,24.90
2018-05-23T11:23:18.634Z,25.28
2018-05-23T11:24:18.809Z,24.30
2018-05-23T11:25:19.003Z,24.13
2018-05-23T11:26:19.203Z,24.14
2018-05-23T11:27:19.381Z,23.07
2018-05-23T11:28:19.568Z,22.69
2018-05-23T11:29:19.743Z,22.69
2018-05-23T11:30:19.955Z,22.77
2018-05-23T11:31:21.203Z,23.06
2018-05-23T11:32:20.295Z,23.06
2018-05-23T11:33:20.485Z,22.95
2018-05-23T11:34:20.684Z,23.18
2018-05-23T11:35:20.901Z,23.27
2018-05-23T11:36:21.043Z,22.49
2018-05-23T11:37:21.240Z,22.56
2018-05-23T11:38:21.432Z,22.27
2018-05-23T11:39:21.641Z,22.00
2018-05-23T11:40:21.990Z,20.81
2018-05-23T11:41:22.056Z,20.25
2018-05-23T11:42:22.327Z,19.74
2018-05-23T11:43:22.655Z,19.84
2018-05-23T11:44:23.213Z,19.24
2018-05-23T11:45:23.214Z,19.45
2018-05-23T11:46:24.552Z,19.27
2018-05-23T11:47:24.598Z,18.98
2018-05-23T11:48:24.112Z,19.15
2018-05-23T11:49:24.425Z,18.99
2018-05-23T11:50:25.143Z,18.21
2018-05-23T11:51:24.180Z,17.51
2018-05-23T11:52:24.643Z,16.84
2018-05-23T11:53:24.577Z,16.56
2018-05-23T11:54:24.533Z,15.86
2018-05-23T11:55:24.975Z,15.06
2018-05-23T11:56:24.949Z,14.78
2018-05-23T11:57:25.174Z,14.69
2018-05-23T11:58:25.142Z,14.50
2018-05-23T11:59:25.346Z,14.70
2018-05-23T12:00:25.524Z,14.01
2018-05-23T12:01:25.720Z,14.31
2018-05-23T12:02:25.909Z,14.21
2018-05-23T12:03:26.131Z,14.41
2018-05-23T12:04:26.285Z,14.19
2018-05-23T12:05:26.488Z,13.59
2018-05-23T12:06:26.683Z,13.49
2018-05-23T12:07:26.889Z,13.60
2018-05-23T12:08:27.084Z,13.48
2018-05-23T12:09:27.274Z,13.49
2018-05-23T12:10:27.508Z,13.29
2018-05-23T12:11:27.666Z,13.21
2018-05-23T12:12:27.865Z,13.13
2018-05-23T12:13:28.062Z,12.50
2018-05-23T12:14:28.258Z,13.09
2018-05-23T12:15:28.462Z,13.29
2018-05-23T12:16:28.656Z,12.60
2018-05-23T12:17:28.852Z,12.32
2018-05-23T12:18:29.044Z,12.12
2018-05-23T12:19:29.247Z,12.43
2018-05-23T12:20:29.445Z,12.23
2018-05-23T12:21:29.638Z,12.43
2018-05-23T12:22:29.835Z,12.44
2018-05-23T12:23:30.039Z,11.73
2018-05-23T12:24:30.230Z,12.13
2018-05-23T12:25:30.432Z,12.43
2018-05-23T12:26:30.631Z,11.63
2018-05-23T12:27:30.833Z,10.52
2018-05-23T12:28:31.035Z,10.93
2018-05-23T12:29:31.240Z,10.84
2018-05-23T12:30:31.450Z,10.93
2018-05-23T12:31:31.649Z,9.52
2018-05-23T12:32:31.851Z,9.23
2018-05-23T12:33:32.052Z,9.13
2018-05-23T12:34:32.251Z,9.23
2018-05-23T12:35:32.438Z,9.14
2018-05-23T12:36:33.483Z,9.74
2018-05-23T12:37:32.800Z,10.72
2018-05-23T12:38:33.000Z,11.32
2018-05-23T12:39:33.976Z,12.99
2018-05-23T12:40:33.419Z,13.60
2018-05-23T12:41:33.622Z,14.45
2018-05-23T12:42:48.474Z,15.14
2018-05-23T12:43:34.028Z,15.80
2018-05-23T12:44:34.229Z,16.67
2018-05-23T12:45:34.428Z,18.05
2018-05-23T12:46:34.624Z,18.23
2018-05-23T12:47:34.819Z,19.11
2018-05-23T12:48:35.006Z,18.80
2018-05-23T12:49:35.202Z,19.11
2018-05-23T12:50:35.389Z,19.19
2018-05-23T12:51:35.584Z,20.17
2018-05-23T12:52:35.771Z,21.64
2018-05-23T12:53:35.980Z,21.93
2018-05-23T12:54:36.902Z,21.64